createdAt,value
2023-02-27T00:01:20.493Z,76.72
2023-02-27T00:03:47.601Z,76.58
2023-02-27T00:06:14.640Z,76.51
2023-02-27T00:08:41.620Z,76.84
2023-02-27T00:11:08.807Z,76.68
2023-02-27T00:13:36.424Z,76.98
2023-02-27T00:16:03.663Z,76.80
2023-02-27T00:18:30.671Z,76.78
2023-02-27T00:20:57.649Z,76.66
2023-02-27T00:23:24.632Z,76.75
2023-02-27T00:25:52.327Z,76.66
2023-02-27T00:28:19.292Z,76.83
2023-02-27T00:30:46.350Z,76.93
2023-02-27T00:33:13.694Z,76.88
2023-02-27T00:35:40.741Z,77.12
2023-02-27T00:38:08.196Z,77.33
2023-02-27T00:40:37.883Z,77.34
2023-02-27T00:43:05.090Z,77.30
2023-02-27T00:45:32.161Z,77.40
2023-02-27T00:47:59.195Z,77.57
2023-02-27T00:50:26.140Z,77.43
2023-02-27T00:52:53.193Z,77.76
2023-02-27T00:55:20.216Z,77.74
2023-02-27T00:57:47.337Z,77.90
2023-02-27T01:00:14.759Z,77.76
2023-02-27T01:02:41.956Z,77.75
2023-02-27T01:05:10.332Z,77.67
2023-02-27T01:07:37.781Z,77.71
2023-02-27T01:10:07.388Z,77.53
2023-02-27T01:12:34.529Z,77.46
2023-02-27T01:15:01.624Z,77.42
2023-02-27T01:17:28.701Z,77.42
2023-02-27T01:19:55.778Z,77.76
2023-02-27T01:22:22.785Z,77.63
2023-02-27T01:24:49.839Z,77.63
2023-02-27T01:27:17.307Z,77.65
2023-02-27T01:29:44.456Z,77.50
2023-02-27T01:32:11.550Z,77.68
2023-02-27T01:34:38.665Z,77.54
2023-02-27T01:37:05.741Z,77.34
2023-02-27T01:39:33.213Z,77.34
2023-02-27T01:42:01.169Z,77.42
2023-02-27T01:44:30.945Z,77.51
2023-02-27T01:46:58.244Z,77.48
2023-02-27T01:49:32.514Z,77.41
2023-02-27T01:52:08.793Z,77.52
2023-02-27T01:54:40.441Z,77.45
2023-02-27T01:57:08.088Z,77.80
2023-02-27T01:59:38.100Z,77.60
2023-02-27T02:02:15.213Z,77.59
2023-02-27T02:04:43.490Z,77.95
2023-02-27T02:07:18.111Z,78.04
2023-02-27T02:09:49.863Z,78.15
2023-02-27T02:12:21.617Z,78.31
2023-02-27T02:14:48.604Z,78.70
2023-02-27T02:17:41.696Z,78.54
2023-02-27T02:20:51.960Z,78.72
2023-02-27T02:23:36.871Z,78.71
2023-02-27T02:26:25.857Z,78.70
2023-02-27T02:29:42.880Z,79.22
2023-02-27T02:32:39.708Z,79.05
2023-02-27T02:35:49.509Z,79.19
2023-02-27T02:39:02.801Z,79.59
2023-02-27T02:41:56.680Z,80.07
2023-02-27T02:44:38.917Z,80.16
2023-02-27T02:47:30.719Z,80.22
2023-02-27T02:50:09.734Z,80.52
2023-02-27T02:53:21.609Z,80.47
2023-02-27T02:55:56.430Z,80.53
2023-02-27T02:59:02.529Z,80.68
2023-02-27T03:01:41.212Z,80.52
2023-02-27T03:04:28.187Z,80.64
2023-02-27T03:07:34.358Z,80.75
2023-02-27T03:10:14.402Z,80.38
2023-02-27T03:12:51.476Z,80.39
2023-02-27T03:15:41.747Z,80.44
2023-02-27T03:18:24.314Z,80.64
2023-02-27T03:21:05.541Z,80.57
2023-02-27T03:23:44.533Z,80.75
2023-02-27T03:26:17.531Z,80.64
2023-02-27T03:28:57.139Z,80.67
2023-02-27T03:31:34.422Z,80.63
2023-02-27T03:34:33.747Z,80.39
2023-02-27T03:37:07.689Z,80.67
2023-02-27T03:39:53.189Z,80.69
2023-02-27T03:42:39.260Z,80.87
2023-02-27T03:45:29.376Z,81.14
2023-02-27T03:47:56.606Z,81.42
2023-02-27T03:50:24.057Z,81.69
2023-02-27T03:52:51.612Z,82.00
2023-02-27T03:55:25.520Z,82.19
2023-02-27T03:57:53.381Z,82.64
2023-02-27T04:00:23.710Z,82.63
2023-02-27T04:02:53.523Z,82.71
2023-02-27T04:05:22.031Z,82.99
2023-02-27T04:08:36.623Z,83.12
2023-02-27T04:11:41.772Z,82.89
2023-02-27T04:14:56.568Z,83.09
2023-02-27T04:17:30.120Z,83.55
2023-02-27T04:20:18.294Z,83.41
2023-02-27T04:22:55.235Z,83.61
2023-02-27T04:25:57.945Z,83.70
2023-02-27T04:28:52.973Z,83.88
2023-02-27T04:31:30.794Z,84.16
2023-02-27T04:34:12.178Z,84.20
2023-02-27T04:36:52.949Z,84.02
2023-02-27T04:39:29.105Z,84.18
2023-02-27T04:42:04.486Z,84.43
2023-02-27T04:44:36.255Z,84.15
2023-02-27T04:47:07.222Z,84.13
2023-02-27T04:49:50.232Z,84.00
2023-02-27T04:52:39.002Z,84.28
2023-02-27T04:55:13.594Z,84.08
2023-02-27T04:58:02.604Z,84.02
2023-02-27T05:00:33.096Z,84.01
2023-02-27T05:03:20.234Z,84.18
2023-02-27T05:05:49.926Z,84.24
2023-02-27T05:08:29.892Z,84.45
2023-02-27T05:11:09.301Z,84.12
2023-02-27T05:13:47.124Z,84.03
2023-02-27T05:16:53.392Z,83.80
2023-02-27T05:19:20.944Z,83.92
2023-02-27T05:22:15.079Z,84.00
2023-02-27T05:24:49.157Z,83.65
2023-02-27T05:27:47.602Z,83.65
2023-02-27T05:30:57.927Z,83.84
2023-02-27T05:33:36.588Z,83.80
2023-02-27T05:36:42.345Z,83.89
2023-02-27T05:39:11.489Z,83.98
2023-02-27T05:41:54.472Z,84.25
2023-02-27T05:44:26.342Z,84.47
2023-02-27T05:47:00.285Z,84.56
2023-02-27T05:49:42.673Z,84.57
2023-02-27T05:52:14.878Z,84.54
2023-02-27T05:55:20.462Z,84.67
2023-02-27T05:58:19.496Z,84.80
2023-02-27T06:00:58.931Z,84.70
2023-02-27T06:03:28.419Z,84.60
2023-02-27T06:05:58.684Z,84.37
2023-02-27T06:08:27.862Z,84.58
2023-02-27T06:10:57.738Z,84.49
2023-02-27T06:13:26.400Z,84.44
2023-02-27T06:15:54.191Z,84.48
2023-02-27T06:18:21.896Z,84.24
2023-02-27T06:20:50.116Z,84.27
2023-02-27T06:23:17.502Z,84.59
2023-02-27T06:25:44.943Z,84.34
2023-02-27T06:28:12.332Z,84.08
2023-02-27T06:30:39.499Z,83.55
2023-02-27T06:33:06.873Z,83.37
2023-02-27T06:35:34.030Z,83.18
2023-02-27T06:38:01.067Z,83.18
2023-02-27T06:40:28.129Z,83.50
2023-02-27T06:42:55.181Z,83.38
2023-02-27T06:45:24.281Z,83.30
2023-02-27T06:47:51.366Z,83.58
2023-02-27T06:50:18.558Z,83.74
2023-02-27T06:52:45.597Z,83.68
2023-02-27T06:55:12.779Z,83.28
2023-02-27T06:57:39.968Z,83.40
2023-02-27T07:00:08.377Z,83.02
2023-02-27T07:02:35.382Z,83.15
2023-02-27T07:05:07.901Z,82.87
2023-02-27T07:07:38.000Z,82.79
2023-02-27T07:10:12.610Z,82.52
2023-02-27T07:12:40.799Z,82.45
2023-02-27T07:15:09.811Z,82.36
2023-02-27T07:17:37.907Z,82.18
2023-02-27T07:20:08.282Z,82.21
2023-02-27T07:22:35.623Z,81.95
2023-02-27T07:25:04.162Z,81.90
2023-02-27T07:27:31.633Z,81.43
2023-02-27T07:29:58.925Z,81.63
2023-02-27T07:32:26.246Z,81.02
2023-02-27T07:34:53.553Z,80.83
2023-02-27T07:37:20.637Z,80.75
2023-02-27T07:39:47.627Z,80.39
2023-02-27T07:42:14.686Z,79.82
2023-02-27T07:44:42.067Z,79.11
2023-02-27T07:47:09.145Z,78.95
2023-02-27T07:49:36.801Z,78.35
2023-02-27T07:52:04.617Z,78.32
2023-02-27T07:54:35.646Z,77.96
2023-02-27T07:57:03.299Z,77.16
2023-02-27T07:59:30.683Z,76.78
2023-02-27T08:01:57.805Z,76.38
2023-02-27T08:04:24.840Z,76.26
2023-02-27T08:06:51.970Z,75.94
2023-02-27T08:09:19.049Z,75.80
2023-02-27T08:11:48.810Z,75.47
2023-02-27T08:14:16.303Z,75.37
2023-02-27T08:16:43.350Z,75.27
2023-02-27T08:19:12.880Z,74.90
2023-02-27T08:21:40.091Z,73.99
2023-02-27T08:24:07.579Z,73.97
2023-02-27T08:26:34.678Z,73.92
2023-02-27T08:29:01.903Z,73.60
2023-02-27T08:31:29.363Z,73.06
2023-02-27T08:34:04.565Z,72.90
2023-02-27T08:36:36.878Z,72.45
2023-02-27T08:39:04.498Z,71.72
2023-02-27T08:41:31.655Z,71.54
2023-02-27T08:43:58.779Z,71.52
2023-02-27T08:46:26.609Z,71.09
2023-02-27T08:48:54.025Z,71.13
2023-02-27T08:51:21.195Z,70.72
2023-02-27T08:53:48.329Z,70.86
2023-02-27T08:56:15.982Z,70.60
2023-02-27T08:58:43.051Z,70.32
2023-02-27T09:01:11.407Z,69.75
2023-02-27T09:03:38.576Z,69.37
2023-02-27T09:06:05.974Z,69.32
2023-02-27T09:08:33.042Z,69.02
2023-02-27T09:11:00.173Z,69.05
2023-02-27T09:13:27.332Z,68.39
2023-02-27T09:15:54.730Z,68.39
2023-02-27T09:18:22.884Z,68.24
2023-02-27T09:20:52.066Z,68.43
2023-02-27T09:23:19.647Z,67.67
2023-02-27T09:25:47.699Z,67.27
2023-02-27T09:28:15.494Z,66.90
2023-02-27T09:30:42.644Z,66.88
2023-02-27T09:33:09.945Z,66.45
2023-02-27T09:35:37.684Z,66.03
2023-02-27T09:38:04.899Z,65.85
2023-02-27T09:40:39.902Z,65.00
2023-02-27T09:43:23.016Z,65.25
2023-02-27T09:45:56.290Z,63.64
2023-02-27T09:48:44.375Z,63.52
2023-02-27T09:51:11.973Z,62.92
2023-02-27T09:53:43.400Z,62.30
2023-02-27T09:56:21.664Z,61.79
2023-02-27T09:59:16.603Z,61.12
2023-02-27T10:01:58.976Z,61.06
2023-02-27T10:04:32.718Z,60.75
2023-02-27T10:07:08.127Z,60.33
2023-02-27T10:10:20.506Z,59.69
2023-02-27T10:13:11.770Z,59.61
2023-02-27T10:15:46.596Z,59.05
2023-02-27T10:18:28.407Z,59.20
2023-02-27T10:21:13.467Z,58.90
2023-02-27T10:23:58.218Z,58.48
2023-02-27T10:26:33.272Z,58.36
2023-02-27T10:29:18.355Z,57.87
2023-02-27T10:31:48.137Z,57.71
2023-02-27T10:34:18.943Z,57.62
2023-02-27T10:36:47.861Z,57.55
2023-02-27T10:39:18.546Z,56.88
2023-02-27T10:41:46.592Z,56.75
2023-02-27T10:44:20.850Z,56.18
2023-02-27T10:46:51.378Z,56.32
2023-02-27T10:49:22.167Z,56.20
2023-02-27T10:52:11.304Z,56.19
2023-02-27T10:54:40.162Z,55.77
2023-02-27T10:57:29.183Z,55.66
2023-02-27T11:00:05.507Z,55.27
2023-02-27T11:02:50.570Z,55.06
2023-02-27T11:05:54.371Z,54.66
2023-02-27T11:08:26.713Z,54.19
2023-02-27T11:11:07.687Z,54.63
2023-02-27T11:13:41.417Z,54.47
2023-02-27T11:16:21.954Z,53.51
2023-02-27T11:18:52.214Z,54.09
2023-02-27T11:21:29.668Z,53.87
2023-02-27T11:24:04.256Z,53.83
2023-02-27T11:26:57.857Z,54.08
2023-02-27T11:29:26.409Z,53.52
2023-02-27T11:32:06.036Z,52.61
2023-02-27T11:34:39.037Z,53.01
2023-02-27T11:37:26.516Z,52.13
2023-02-27T11:40:14.604Z,51.80
2023-02-27T11:42:51.309Z,51.82
2023-02-27T11:46:09.321Z,51.52
2023-02-27T11:48:30.244Z,50.63
2023-02-27T11:51:18.250Z,51.27
2023-02-27T11:54:16.603Z,51.49
2023-02-27T11:56:45.149Z,51.88
2023-02-27T11:59:12.546Z,51.40
2023-02-27T12:01:57.466Z,50.97
2023-02-27T12:04:51.960Z,51.24
2023-02-27T12:07:49.142Z,50.69
2023-02-27T12:10:27.504Z,50.62
2023-02-27T12:13:10.324Z,50.26
2023-02-27T12:15:47.811Z,50.67
2023-02-27T12:18:35.179Z,50.20
2023-02-27T12:21:21.989Z,50.03
2023-02-27T12:24:19.941Z,49.21
2023-02-27T12:26:51.875Z,49.38
2023-02-27T12:29:39.135Z,49.47
2023-02-27T12:32:32.868Z,49.79
2023-02-27T12:35:17.596Z,50.70
2023-02-27T12:37:44.862Z,50.23
2023-02-27T12:40:17.373Z,49.49
2023-02-27T12:42:56.531Z,49.69
2023-02-27T12:45:50.564Z,49.45
2023-02-27T12:49:01.849Z,49.02
2023-02-27T12:51:50.264Z,48.44
2023-02-27T12:54:38.335Z,48.27
2023-02-27T12:57:39.253Z,47.64
2023-02-27T13:00:16.643Z,47.91
2023-02-27T13:02:57.481Z,47.65
2023-02-27T13:05:38.494Z,47.72
2023-02-27T13:08:49.746Z,48.20
2023-02-27T13:11:47.425Z,48.03
2023-02-27T13:15:04.532Z,48.78
2023-02-27T13:17:59.834Z,49.34
2023-02-27T13:20:51.818Z,49.68
2023-02-27T13:23:32.063Z,49.37
2023-02-27T13:26:01.254Z,49.38
2023-02-27T13:28:29.741Z,50.03
2023-02-27T13:31:25.692Z,49.56
2023-02-27T13:34:14.238Z,49.02
2023-02-27T13:37:14.117Z,47.69
2023-02-27T13:39:47.405Z,47.54
2023-02-27T13:42:26.796Z,47.69
2023-02-27T13:44:58.450Z,47.54
2023-02-27T13:47:37.901Z,48.57
2023-02-27T13:50:24.810Z,47.84
2023-02-27T13:52:52.668Z,47.14
2023-02-27T13:55:35.373Z,47.11
2023-02-27T13:58:04.578Z,47.75
2023-02-27T14:00:37.908Z,47.27
2023-02-27T14:03:09.992Z,47.71
2023-02-27T14:05:43.729Z,47.17
2023-02-27T14:08:28.534Z,46.35
2023-02-27T14:11:16.338Z,46.01
2023-02-27T14:13:49.331Z,47.27
2023-02-27T14:16:38.029Z,47.84
2023-02-27T14:19:19.748Z,47.52
2023-02-27T14:21:58.280Z,47.44
2023-02-27T14:24:49.709Z,47.53
2023-02-27T14:27:26.594Z,46.70
2023-02-27T14:29:58.961Z,46.46
2023-02-27T14:32:32.865Z,46.96
2023-02-27T14:35:01.260Z,46.81
2023-02-27T14:37:28.977Z,47.07
2023-02-27T14:39:57.218Z,47.03
2023-02-27T14:43:05.687Z,46.26
2023-02-27T14:45:32.932Z,46.47
2023-02-27T14:47:59.980Z,46.88
2023-02-27T14:50:37.348Z,46.89
2023-02-27T14:53:06.449Z,46.74
2023-02-27T14:55:37.416Z,46.56
2023-02-27T14:58:21.763Z,46.59
2023-02-27T15:01:03.510Z,47.72
2023-02-27T15:03:47.665Z,48.30
2023-02-27T15:06:22.964Z,48.94
2023-02-27T15:08:54.047Z,48.80
2023-02-27T15:11:23.027Z,49.50
2023-02-27T15:13:58.933Z,49.97
2023-02-27T15:16:41.433Z,49.66
2023-02-27T15:19:21.689Z,50.39
2023-02-27T15:21:56.502Z,49.55
2023-02-27T15:27:13.953Z,48.16
2023-02-27T15:29:45.656Z,48.74
2023-02-27T15:32:42.916Z,49.04
2023-02-27T15:35:31.026Z,49.08
2023-02-27T15:38:08.453Z,49.08
2023-02-27T15:40:37.498Z,48.95
2023-02-27T15:43:05.004Z,49.26
2023-02-27T15:45:36.396Z,48.89
2023-02-27T15:48:07.567Z,48.44
2023-02-27T15:50:38.473Z,48.91
2023-02-27T15:53:17.737Z,48.90
2023-02-27T15:55:53.957Z,49.39
2023-02-27T15:58:31.620Z,49.25
2023-02-27T16:01:23.834Z,49.48
2023-02-27T16:03:53.997Z,49.53
2023-02-27T16:06:34.996Z,49.60
2023-02-27T16:09:07.836Z,49.85
2023-02-27T16:11:37.522Z,49.98
2023-02-27T16:14:06.097Z,50.36
2023-02-27T16:16:36.300Z,50.73
2023-02-27T16:19:31.083Z,51.13
2023-02-27T16:22:19.741Z,51.09
2023-02-27T16:24:47.829Z,51.62
2023-02-27T16:27:25.404Z,51.59
2023-02-27T16:29:56.871Z,52.01
2023-02-27T16:32:31.397Z,52.75
2023-02-27T16:35:20.345Z,53.01
2023-02-27T16:37:50.553Z,53.10
2023-02-27T16:40:24.431Z,53.03
2023-02-27T16:42:52.358Z,52.92
2023-02-27T16:45:28.830Z,53.39
2023-02-27T16:48:10.653Z,53.50
2023-02-27T16:50:43.204Z,53.91
2023-02-27T16:53:10.168Z,54.01
2023-02-27T16:55:43.516Z,53.29
2023-02-27T16:58:18.864Z,52.84
2023-02-27T17:00:45.889Z,52.40
2023-02-27T17:03:12.928Z,52.80
2023-02-27T17:05:41.388Z,52.94
2023-02-27T17:08:12.140Z,52.66
2023-02-27T17:10:39.243Z,53.03
2023-02-27T17:13:06.365Z,53.28
2023-02-27T17:15:33.363Z,53.20
2023-02-27T17:18:00.362Z,52.69
2023-02-27T17:20:30.124Z,53.30
2023-02-27T17:22:57.761Z,53.22
2023-02-27T17:25:27.196Z,53.89
2023-02-27T17:27:55.808Z,53.46
2023-02-27T17:30:22.880Z,53.45
2023-02-27T17:32:50.059Z,53.22
2023-02-27T17:35:17.367Z,53.50
2023-02-27T17:37:44.424Z,53.34
2023-02-27T17:40:13.839Z,53.23
2023-02-27T17:42:40.909Z,53.40
2023-02-27T17:45:17.397Z,52.83
2023-02-27T17:47:44.959Z,52.70
2023-02-27T17:50:12.973Z,52.83
2023-02-27T17:52:40.980Z,53.14
2023-02-27T17:55:12.909Z,53.56
2023-02-27T17:57:40.282Z,53.55
2023-02-27T18:00:14.684Z,53.63
2023-02-27T18:02:45.417Z,53.68
2023-02-27T18:05:14.321Z,53.41
2023-02-27T18:07:43.179Z,53.51
2023-02-27T18:10:14.780Z,53.69
2023-02-27T18:12:44.737Z,53.61
2023-02-27T18:15:11.928Z,53.89
2023-02-27T18:17:39.468Z,53.47
2023-02-27T18:20:07.542Z,53.96
2023-02-27T18:22:36.471Z,54.44
2023-02-27T18:25:04.746Z,54.02
2023-02-27T18:27:34.038Z,54.22
2023-02-27T18:30:02.864Z,54.67
2023-02-27T18:32:30.097Z,54.95
2023-02-27T18:34:57.535Z,55.24
2023-02-27T18:37:29.241Z,54.71
2023-02-27T18:39:56.661Z,55.23
2023-02-27T18:42:23.794Z,55.69
2023-02-27T18:44:54.557Z,56.27
2023-02-27T18:47:22.894Z,56.42
2023-02-27T18:49:52.614Z,56.64
2023-02-27T18:52:19.593Z,57.11
2023-02-27T19:19:06.152Z,58.95
2023-02-27T19:21:40.754Z,58.80
2023-02-27T19:24:09.669Z,58.69
2023-02-27T19:26:37.886Z,58.94
2023-02-27T19:29:07.834Z,58.58
2023-02-27T19:31:36.084Z,58.72
2023-02-27T19:34:43.551Z,58.57
2023-02-27T19:37:11.162Z,58.65
2023-02-27T19:39:38.436Z,58.62
2023-02-27T19:42:05.498Z,59.25
2023-02-27T19:44:32.769Z,58.92
2023-02-27T19:47:00.304Z,58.87
2023-02-27T19:49:27.772Z,58.92
2023-02-27T19:51:54.852Z,58.92
2023-02-27T19:54:25.912Z,58.76
2023-02-27T19:56:54.445Z,58.82
2023-02-27T19:59:24.921Z,58.86
2023-02-27T20:01:52.758Z,59.00
2023-02-27T20:04:19.835Z,59.46
2023-02-27T20:06:50.177Z,59.72
2023-02-27T20:09:20.371Z,59.89
2023-02-27T20:11:53.712Z,60.27
2023-02-27T20:14:20.725Z,60.61
2023-02-27T20:16:47.824Z,60.52
2023-02-27T20:19:18.415Z,60.74
2023-02-27T20:21:47.139Z,61.00
2023-02-27T20:24:16.463Z,61.31
2023-02-27T20:26:48.334Z,61.52
2023-02-27T20:29:21.217Z,61.79
2023-02-27T20:31:50.620Z,61.82
2023-02-27T20:34:22.123Z,62.10
2023-02-27T20:36:50.653Z,61.81
2023-02-27T20:39:18.863Z,62.24
2023-02-27T20:41:46.165Z,62.63
2023-02-27T20:44:13.916Z,62.85
2023-02-27T20:46:43.501Z,63.05
2023-02-27T20:49:15.922Z,63.29
2023-02-27T20:51:45.584Z,63.52
2023-02-27T20:54:20.507Z,63.77
2023-02-27T20:56:52.321Z,64.24
2023-02-27T20:59:21.125Z,64.43
2023-02-27T21:01:52.628Z,63.95
2023-02-27T21:04:24.177Z,64.22
2023-02-27T21:06:52.235Z,64.45
2023-02-27T21:09:19.476Z,64.57
2023-02-27T21:11:46.535Z,64.63
2023-02-27T21:14:13.685Z,64.63
2023-02-27T21:16:40.946Z,64.75
2023-02-27T21:19:09.820Z,64.97
2023-02-27T21:21:37.464Z,65.36
2023-02-27T21:24:06.206Z,65.48
2023-02-27T21:26:38.718Z,65.63
2023-02-27T21:29:15.927Z,65.62
2023-02-27T21:31:46.058Z,65.69
2023-02-27T21:34:17.895Z,65.79
2023-02-27T21:36:46.823Z,65.78
2023-02-27T21:39:18.307Z,65.84
2023-02-27T21:41:46.111Z,65.92
2023-02-27T21:44:18.055Z,66.13
2023-02-27T21:46:45.731Z,66.50
2023-02-27T21:49:26.932Z,66.61
2023-02-27T21:51:54.862Z,66.59
2023-02-27T21:54:22.659Z,66.68
2023-02-27T21:56:50.478Z,66.34
2023-02-27T21:59:19.034Z,66.23
2023-02-27T22:01:48.308Z,66.13
2023-02-27T22:04:18.544Z,66.11
2023-02-27T22:06:47.138Z,66.39
2023-02-27T22:09:14.501Z,66.42
2023-02-27T22:11:41.747Z,66.43
2023-02-27T22:14:10.596Z,66.26
2023-02-27T22:16:38.426Z,66.54
2023-02-27T22:19:08.391Z,66.55
2023-02-27T22:21:37.004Z,66.67
2023-02-27T22:24:05.063Z,66.59
2023-02-27T22:26:33.006Z,66.63
2023-02-27T22:29:00.702Z,66.96
2023-02-27T22:31:32.070Z,66.91
2023-02-27T22:34:10.334Z,67.14
2023-02-27T22:36:37.680Z,67.21
2023-02-27T22:39:06.475Z,67.09
2023-02-27T22:41:37.531Z,67.23
2023-02-27T22:44:05.971Z,67.30
2023-02-27T22:46:39.594Z,67.27
2023-02-27T22:49:11.271Z,67.34
2023-02-27T22:51:38.437Z,67.50
2023-02-27T22:54:07.086Z,67.98
2023-02-27T22:56:36.597Z,67.91
2023-02-27T22:59:05.346Z,67.82
2023-02-27T23:01:35.562Z,68.01
2023-02-27T23:04:06.982Z,68.21
2023-02-27T23:06:39.124Z,68.35
2023-02-27T23:09:08.990Z,68.79
2023-02-27T23:11:36.295Z,69.02
2023-02-27T23:14:03.448Z,69.20
2023-02-27T23:16:30.556Z,69.37
2023-02-27T23:18:59.469Z,69.31
2023-02-27T23:21:34.487Z,69.40
2023-02-27T23:24:13.812Z,69.60
2023-02-27T23:26:47.564Z,70.14
2023-02-27T23:29:15.145Z,69.98
2023-02-27T23:31:42.614Z,70.05
2023-02-27T23:34:10.293Z,70.40
2023-02-27T23:36:38.626Z,70.26
2023-02-27T23:39:07.140Z,70.54
2023-02-27T23:41:35.134Z,70.79
2023-02-27T23:44:02.466Z,71.14
2023-02-27T23:46:30.755Z,71.44
2023-02-27T23:48:59.723Z,71.48
2023-02-27T23:51:29.774Z,71.86
2023-02-27T23:53:57.757Z,71.78
2023-02-27T23:56:28.787Z,71.95
2023-02-27T23:59:02.394Z,71.79
